To NAV CANADA Home Page Login to a new session Search on AWWS site Feedback and Comments Disclaimer Vers la page française équivalente Tips FAQ What's new on the site To the Forecasts and Observations / NOTAM section To "File a Flight Plan" website Publications and other links Update of the User's profile FIC Telephone Numbers My Weather Data Folder Route Weather Data Regional Weather Data Local Weather Data To the Forecasts and Observations / NOTAM section
Request Generated 10/18/2017 at 03:51:58 UTC . Weather information available at that time is displayed.

METAR/TAF

SCHEFFERVILLE/QC    (show WxCam)

METAR CYKL 180300Z AUTO 16007KT 9SM OVC070 M02/M07 A2963 RMK SLP065=
METAR CYKL 180200Z AUTO 16006KT 9SM BKN100 OVC140 M02/M07 A2965 RMK
SLP073=
METAR CYKL 180100Z AUTO 16007KT 9SM OVC110 M03/M07 A2967 RMK SLP079=

TAF CYKL 180138Z 1802/1814 16008KT P6SM SCT040 OVC100 TEMPO 1802/1803
3SM -SN BKN020 OVC040
FM180300 15008KT 6SM -SN SCT008 OVC025 TEMPO 1803/1811 11/2SM -SN
BKN008 OVC020
FM181100 07005KT P6SM SCT006 OVC012 TEMPO 1811/1814 2SM -SHSN
OVC006
RMK FCST BASED ON AUTO OBS. NXT FCST BY 180800Z=
Your time UTC time
Weather data provided by Environment Canada and NAV CANADA